sensor_id;sensor_type;location;lat;lon;timestamp;P1;durP1;ratioP1;P2;durP2;ratioP2
59607;SDS011;45426;44.726;10.390;2023-02-26T00:00:25;58.28;;;24.70;;
59607;SDS011;45426;44.726;10.390;2023-02-26T00:02:51;56.13;;;24.83;;
59607;SDS011;45426;44.726;10.390;2023-02-26T00:05:16;49.00;;;22.15;;
59607;SDS011;45426;44.726;10.390;2023-02-26T00:07:42;56.40;;;23.60;;
59607;SDS011;45426;44.726;10.390;2023-02-26T00:10:08;52.60;;;22.42;;
59607;SDS011;45426;44.726;10.390;2023-02-26T00:12:35;54.70;;;24.25;;
59607;SDS011;45426;44.726;10.390;2023-02-26T00:15:02;51.67;;;23.00;;
59607;SDS011;45426;44.726;10.390;2023-02-26T00:20:00;53.38;;;23.98;;
59607;SDS011;45426;44.726;10.390;2023-02-26T00:22:27;56.28;;;23.55;;
59607;SDS011;45426;44.726;10.390;2023-02-26T00:24:53;51.47;;;22.05;;
59607;SDS011;45426;44.726;10.390;2023-02-26T00:27:18;50.38;;;23.35;;
59607;SDS011;45426;44.726;10.390;2023-02-26T00:29:44;56.17;;;24.35;;
59607;SDS011;45426;44.726;10.390;2023-02-26T00:32:10;53.03;;;22.38;;
59607;SDS011;45426;44.726;10.390;2023-02-26T00:34:36;57.42;;;24.25;;
59607;SDS011;45426;44.726;10.390;2023-02-26T00:37:05;55.92;;;24.02;;
59607;SDS011;45426;44.726;10.390;2023-02-26T00:42:34;51.88;;;21.80;;
59607;SDS011;45426;44.726;10.390;2023-02-26T00:44:59;51.00;;;22.77;;
59607;SDS011;45426;44.726;10.390;2023-02-26T00:52:45;53.90;;;22.92;;
59607;SDS011;45426;44.726;10.390;2023-02-26T00:55:15;53.38;;;22.90;;
59607;SDS011;45426;44.726;10.390;2023-02-26T00:57:40;62.53;;;23.92;;
59607;SDS011;45426;44.726;10.390;2023-02-26T01:00:06;53.38;;;23.25;;
59607;SDS011;45426;44.726;10.390;2023-02-26T01:02:36;61.78;;;25.05;;
59607;SDS011;45426;44.726;10.390;2023-02-26T01:05:02;61.13;;;24.65;;
59607;SDS011;45426;44.726;10.390;2023-02-26T01:07:28;49.80;;;23.15;;
59607;SDS011;45426;44.726;10.390;2023-02-26T01:10:01;54.88;;;23.58;;
59607;SDS011;45426;44.726;10.390;2023-02-26T01:12:27;58.03;;;23.35;;
59607;SDS011;45426;44.726;10.390;2023-02-26T01:14:53;55.03;;;23.45;;
59607;SDS011;45426;44.726;10.390;2023-02-26T01:20:20;54.85;;;24.50;;
59607;SDS011;45426;44.726;10.390;2023-02-26T01:22:49;57.58;;;24.52;;
59607;SDS011;45426;44.726;10.390;2023-02-26T01:25:23;56.88;;;23.38;;
59607;SDS011;45426;44.726;10.390;2023-02-26T01:28:10;59.10;;;24.08;;
59607;SDS011;45426;44.726;10.390;2023-02-26T01:30:36;66.95;;;25.40;;
59607;SDS011;45426;44.726;10.390;2023-02-26T01:35:52;61.90;;;24.42;;
59607;SDS011;45426;44.726;10.390;2023-02-26T01:48:48;53.25;;;23.55;;
59607;SDS011;45426;44.726;10.390;2023-02-26T01:51:16;59.42;;;23.98;;
59607;SDS011;45426;44.726;10.390;2023-02-26T01:53:42;56.72;;;24.88;;
59607;SDS011;45426;44.726;10.390;2023-02-26T01:56:10;62.28;;;25.40;;
59607;SDS011;45426;44.726;10.390;2023-02-26T01:58:39;58.78;;;24.80;;
59607;SDS011;45426;44.726;10.390;2023-02-26T02:01:05;58.33;;;25.02;;
59607;SDS011;45426;44.726;10.390;2023-02-26T02:03:33;59.92;;;25.15;;
59607;SDS011;45426;44.726;10.390;2023-02-26T02:06:14;57.65;;;24.88;;
59607;SDS011;45426;44.726;10.390;2023-02-26T02:08:43;58.97;;;25.02;;
59607;SDS011;45426;44.726;10.390;2023-02-26T02:11:10;58.40;;;23.85;;
59607;SDS011;45426;44.726;10.390;2023-02-26T02:13:39;53.72;;;23.75;;
59607;SDS011;45426;44.726;10.390;2023-02-26T02:16:24;59.63;;;25.05;;
59607;SDS011;45426;44.726;10.390;2023-02-26T02:19:10;56.90;;;24.27;;
59607;SDS011;45426;44.726;10.390;2023-02-26T02:30:33;58.08;;;23.50;;
59607;SDS011;45426;44.726;10.390;2023-02-26T02:33:12;64.13;;;23.50;;
59607;SDS011;45426;44.726;10.390;2023-02-26T02:35:53;54.38;;;22.70;;
59607;SDS011;45426;44.726;10.390;2023-02-26T02:38:24;57.63;;;23.65;;
59607;SDS011;45426;44.726;10.390;2023-02-26T02:40:56;64.13;;;24.45;;
59607;SDS011;45426;44.726;10.390;2023-02-26T02:43:31;57.25;;;23.83;;
59607;SDS011;45426;44.726;10.390;2023-02-26T02:46:04;60.00;;;24.52;;
59607;SDS011;45426;44.726;10.390;2023-02-26T02:48:56;59.78;;;24.85;;
59607;SDS011;45426;44.726;10.390;2023-02-26T02:51:33;62.05;;;24.27;;
59607;SDS011;45426;44.726;10.390;2023-02-26T02:54:14;68.03;;;25.50;;
59607;SDS011;45426;44.726;10.390;2023-02-26T02:56:44;57.60;;;23.98;;
59607;SDS011;45426;44.726;10.390;2023-02-26T02:59:17;58.85;;;23.52;;
59607;SDS011;45426;44.726;10.390;2023-02-26T03:01:48;56.85;;;24.35;;
59607;SDS011;45426;44.726;10.390;2023-02-26T03:04:17;58.45;;;22.80;;
59607;SDS011;45426;44.726;10.390;2023-02-26T03:06:43;65.47;;;24.65;;
59607;SDS011;45426;44.726;10.390;2023-02-26T03:09:10;57.25;;;23.55;;
59607;SDS011;45426;44.726;10.390;2023-02-26T03:11:37;56.83;;;23.77;;
59607;SDS011;45426;44.726;10.390;2023-02-26T03:14:03;57.63;;;24.50;;
59607;SDS011;45426;44.726;10.390;2023-02-26T03:16:45;55.95;;;22.83;;
59607;SDS011;45426;44.726;10.390;2023-02-26T03:19:32;59.20;;;23.63;;
59607;SDS011;45426;44.726;10.390;2023-02-26T03:24:53;50.88;;;23.05;;
59607;SDS011;45426;44.726;10.390;2023-02-26T03:27:30;52.92;;;22.45;;
59607;SDS011;45426;44.726;10.390;2023-02-26T03:32:38;53.55;;;23.33;;
59607;SDS011;45426;44.726;10.390;2023-02-26T03:35:14;54.33;;;23.05;;
59607;SDS011;45426;44.726;10.390;2023-02-26T03:37:47;41.40;;;18.77;;
59607;SDS011;45426;44.726;10.390;2023-02-26T03:40:18;42.00;;;18.83;;
59607;SDS011;45426;44.726;10.390;2023-02-26T03:42:51;52.33;;;24.15;;
59607;SDS011;45426;44.726;10.390;2023-02-26T03:45:23;47.03;;;24.30;;
59607;SDS011;45426;44.726;10.390;2023-02-26T03:47:52;50.78;;;26.25;;
59607;SDS011;45426;44.726;10.390;2023-02-26T03:50:21;53.03;;;26.52;;
59607;SDS011;45426;44.726;10.390;2023-02-26T03:52:48;57.72;;;29.88;;
59607;SDS011;45426;44.726;10.390;2023-02-26T03:55:51;69.05;;;31.85;;
59607;SDS011;45426;44.726;10.390;2023-02-26T03:58:13;75.30;;;34.28;;
59607;SDS011;45426;44.726;10.390;2023-02-26T04:00:39;79.28;;;33.75;;
59607;SDS011;45426;44.726;10.390;2023-02-26T04:05:51;42.60;;;16.35;;
59607;SDS011;45426;44.726;10.390;2023-02-26T04:08:19;22.25;;;8.20;;
59607;SDS011;45426;44.726;10.390;2023-02-26T04:10:50;18.45;;;6.20;;
59607;SDS011;45426;44.726;10.390;2023-02-26T04:13:18;20.77;;;5.55;;
59607;SDS011;45426;44.726;10.390;2023-02-26T04:15:44;18.92;;;5.28;;
59607;SDS011;45426;44.726;10.390;2023-02-26T04:18:09;13.57;;;4.30;;
59607;SDS011;45426;44.726;10.390;2023-02-26T04:20:35;15.63;;;4.68;;
59607;SDS011;45426;44.726;10.390;2023-02-26T04:23:00;12.20;;;3.80;;
59607;SDS011;45426;44.726;10.390;2023-02-26T04:25:26;14.05;;;3.50;;
59607;SDS011;45426;44.726;10.390;2023-02-26T04:27:51;11.32;;;3.10;;
59607;SDS011;45426;44.726;10.390;2023-02-26T04:30:17;8.43;;;2.75;;
59607;SDS011;45426;44.726;10.390;2023-02-26T04:32:42;10.27;;;3.15;;
59607;SDS011;45426;44.726;10.390;2023-02-26T04:35:08;10.45;;;2.83;;
59607;SDS011;45426;44.726;10.390;2023-02-26T04:37:33;11.05;;;3.55;;
59607;SDS011;45426;44.726;10.390;2023-02-26T04:39:59;10.68;;;2.53;;
59607;SDS011;45426;44.726;10.390;2023-02-26T04:42:24;26.70;;;8.25;;
59607;SDS011;45426;44.726;10.390;2023-02-26T04:44:49;14.35;;;4.35;;
59607;SDS011;45426;44.726;10.390;2023-02-26T04:47:15;7.55;;;2.45;;
59607;SDS011;45426;44.726;10.390;2023-02-26T04:49:40;7.60;;;2.40;;
59607;SDS011;45426;44.726;10.390;2023-02-26T04:52:06;7.13;;;2.05;;
59607;SDS011;45426;44.726;10.390;2023-02-26T04:54:31;10.30;;;2.20;;
59607;SDS011;45426;44.726;10.390;2023-02-26T04:56:56;7.60;;;1.92;;
59607;SDS011;45426;44.726;10.390;2023-02-26T04:59:22;13.10;;;1.90;;
59607;SDS011;45426;44.726;10.390;2023-02-26T05:01:47;8.60;;;1.80;;
59607;SDS011;45426;44.726;10.390;2023-02-26T05:04:13;7.93;;;1.73;;
59607;SDS011;45426;44.726;10.390;2023-02-26T05:06:38;8.48;;;1.50;;
59607;SDS011;45426;44.726;10.390;2023-02-26T05:09:04;5.55;;;1.40;;
59607;SDS011;45426;44.726;10.390;2023-02-26T05:11:30;7.82;;;2.28;;
59607;SDS011;45426;44.726;10.390;2023-02-26T05:13:55;10.07;;;3.20;;
59607;SDS011;45426;44.726;10.390;2023-02-26T05:16:21;8.48;;;1.60;;
59607;SDS011;45426;44.726;10.390;2023-02-26T05:18:46;5.78;;;2.15;;
59607;SDS011;45426;44.726;10.390;2023-02-26T05:21:12;12.45;;;1.88;;
59607;SDS011;45426;44.726;10.390;2023-02-26T05:23:37;7.68;;;1.80;;
59607;SDS011;45426;44.726;10.390;2023-02-26T05:26:03;9.05;;;1.58;;
59607;SDS011;45426;44.726;10.390;2023-02-26T05:28:28;4.65;;;1.42;;
59607;SDS011;45426;44.726;10.390;2023-02-26T05:30:54;6.88;;;2.00;;
59607;SDS011;45426;44.726;10.390;2023-02-26T05:33:21;6.63;;;1.58;;
59607;SDS011;45426;44.726;10.390;2023-02-26T05:35:48;8.25;;;1.55;;
59607;SDS011;45426;44.726;10.390;2023-02-26T05:38:14;5.38;;;1.30;;
59607;SDS011;45426;44.726;10.390;2023-02-26T05:40:39;6.88;;;1.15;;
59607;SDS011;45426;44.726;10.390;2023-02-26T05:43:05;6.72;;;1.58;;
59607;SDS011;45426;44.726;10.390;2023-02-26T05:45:31;6.97;;;1.70;;
59607;SDS011;45426;44.726;10.390;2023-02-26T05:47:56;6.03;;;1.98;;
59607;SDS011;45426;44.726;10.390;2023-02-26T05:50:22;6.25;;;1.35;;
59607;SDS011;45426;44.726;10.390;2023-02-26T05:52:47;7.72;;;1.35;;
59607;SDS011;45426;44.726;10.390;2023-02-26T05:55:12;6.50;;;1.25;;
59607;SDS011;45426;44.726;10.390;2023-02-26T05:57:38;6.78;;;1.60;;
59607;SDS011;45426;44.726;10.390;2023-02-26T06:00:04;9.38;;;3.78;;
59607;SDS011;45426;44.726;10.390;2023-02-26T06:02:31;4.28;;;1.45;;
59607;SDS011;45426;44.726;10.390;2023-02-26T06:04:56;4.03;;;1.25;;
59607;SDS011;45426;44.726;10.390;2023-02-26T06:07:21;6.32;;;1.50;;
59607;SDS011;45426;44.726;10.390;2023-02-26T06:09:48;5.20;;;1.10;;
59607;SDS011;45426;44.726;10.390;2023-02-26T06:12:14;7.22;;;1.55;;
59607;SDS011;45426;44.726;10.390;2023-02-26T06:14:39;5.15;;;1.17;;
59607;SDS011;45426;44.726;10.390;2023-02-26T06:17:05;5.38;;;1.30;;
59607;SDS011;45426;44.726;10.390;2023-02-26T06:19:32;4.50;;;1.20;;
59607;SDS011;45426;44.726;10.390;2023-02-26T06:21:57;6.18;;;1.48;;
59607;SDS011;45426;44.726;10.390;2023-02-26T06:24:23;6.10;;;1.48;;
59607;SDS011;45426;44.726;10.390;2023-02-26T06:26:49;1.52;;;0.82;;
59607;SDS011;45426;44.726;10.390;2023-02-26T06:29:14;3.53;;;0.82;;
59607;SDS011;45426;44.726;10.390;2023-02-26T06:31:42;1.08;;;0.65;;
59607;SDS011;45426;44.726;10.390;2023-02-26T06:34:08;1.17;;;1.00;;
59607;SDS011;45426;44.726;10.390;2023-02-26T06:36:33;2.75;;;0.93;;
59607;SDS011;45426;44.726;10.390;2023-02-26T06:38:59;3.33;;;0.70;;
59607;SDS011;45426;44.726;10.390;2023-02-26T06:41:24;5.38;;;1.33;;
59607;SDS011;45426;44.726;10.390;2023-02-26T06:43:49;3.55;;;0.77;;
59607;SDS011;45426;44.726;10.390;2023-02-26T06:46:15;2.08;;;0.80;;
59607;SDS011;45426;44.726;10.390;2023-02-26T06:48:40;5.40;;;1.08;;
59607;SDS011;45426;44.726;10.390;2023-02-26T06:51:06;2.92;;;0.90;;
59607;SDS011;45426;44.726;10.390;2023-02-26T06:53:31;6.05;;;1.00;;
59607;SDS011;45426;44.726;10.390;2023-02-26T06:55:56;6.95;;;1.33;;
59607;SDS011;45426;44.726;10.390;2023-02-26T06:58:22;3.85;;;1.17;;
59607;SDS011;45426;44.726;10.390;2023-02-26T07:00:48;5.03;;;1.27;;
59607;SDS011;45426;44.726;10.390;2023-02-26T07:03:15;5.40;;;1.20;;
59607;SDS011;45426;44.726;10.390;2023-02-26T07:05:42;4.97;;;1.10;;
59607;SDS011;45426;44.726;10.390;2023-02-26T07:08:09;2.97;;;1.00;;
59607;SDS011;45426;44.726;10.390;2023-02-26T07:10:34;3.45;;;0.77;;
59607;SDS011;45426;44.726;10.390;2023-02-26T07:13:01;6.05;;;1.30;;
59607;SDS011;45426;44.726;10.390;2023-02-26T07:15:26;3.03;;;1.20;;
59607;SDS011;45426;44.726;10.390;2023-02-26T07:17:52;4.13;;;0.95;;
59607;SDS011;45426;44.726;10.390;2023-02-26T07:20:17;3.30;;;1.27;;
59607;SDS011;45426;44.726;10.390;2023-02-26T07:22:43;3.45;;;1.55;;
59607;SDS011;45426;44.726;10.390;2023-02-26T07:25:09;7.78;;;1.25;;
59607;SDS011;45426;44.726;10.390;2023-02-26T07:27:36;2.90;;;0.98;;
59607;SDS011;45426;44.726;10.390;2023-02-26T07:30:01;4.93;;;1.38;;
59607;SDS011;45426;44.726;10.390;2023-02-26T07:32:28;1.98;;;1.00;;
59607;SDS011;45426;44.726;10.390;2023-02-26T07:34:53;0.85;;;0.80;;
59607;SDS011;45426;44.726;10.390;2023-02-26T07:37:19;3.70;;;1.00;;
59607;SDS011;45426;44.726;10.390;2023-02-26T07:39:44;4.30;;;1.13;;
59607;SDS011;45426;44.726;10.390;2023-02-26T07:42:10;5.97;;;1.05;;
59607;SDS011;45426;44.726;10.390;2023-02-26T07:44:35;3.20;;;1.42;;
59607;SDS011;45426;44.726;10.390;2023-02-26T07:47:01;2.75;;;1.02;;
59607;SDS011;45426;44.726;10.390;2023-02-26T07:49:26;1.63;;;0.93;;
59607;SDS011;45426;44.726;10.390;2023-02-26T07:51:52;3.35;;;1.40;;
59607;SDS011;45426;44.726;10.390;2023-02-26T07:54:18;3.03;;;1.02;;
59607;SDS011;45426;44.726;10.390;2023-02-26T07:56:43;4.00;;;1.02;;
59607;SDS011;45426;44.726;10.390;2023-02-26T07:59:09;4.95;;;1.25;;
59607;SDS011;45426;44.726;10.390;2023-02-26T08:01:34;3.45;;;0.77;;
59607;SDS011;45426;44.726;10.390;2023-02-26T08:04:00;2.03;;;0.90;;
59607;SDS011;45426;44.726;10.390;2023-02-26T08:06:26;2.95;;;0.85;;
59607;SDS011;45426;44.726;10.390;2023-02-26T08:08:53;2.20;;;0.82;;
59607;SDS011;45426;44.726;10.390;2023-02-26T08:11:18;4.43;;;0.93;;
59607;SDS011;45426;44.726;10.390;2023-02-26T08:13:43;3.80;;;1.10;;
59607;SDS011;45426;44.726;10.390;2023-02-26T08:16:09;1.20;;;0.90;;
59607;SDS011;45426;44.726;10.390;2023-02-26T08:18:35;2.38;;;0.85;;
59607;SDS011;45426;44.726;10.390;2023-02-26T08:21:00;1.50;;;1.00;;
59607;SDS011;45426;44.726;10.390;2023-02-26T08:23:26;3.50;;;0.95;;
59607;SDS011;45426;44.726;10.390;2023-02-26T08:25:58;1.23;;;0.80;;
59607;SDS011;45426;44.726;10.390;2023-02-26T08:28:25;3.78;;;1.38;;
59607;SDS011;45426;44.726;10.390;2023-02-26T08:30:53;3.80;;;1.52;;
59607;SDS011;45426;44.726;10.390;2023-02-26T08:33:19;6.47;;;1.25;;
59607;SDS011;45426;44.726;10.390;2023-02-26T08:35:45;8.10;;;1.02;;
59607;SDS011;45426;44.726;10.390;2023-02-26T08:38:11;0.80;;;0.70;;
59607;SDS011;45426;44.726;10.390;2023-02-26T08:40:36;3.03;;;0.75;;
59607;SDS011;45426;44.726;10.390;2023-02-26T08:43:02;5.15;;;1.15;;
59607;SDS011;45426;44.726;10.390;2023-02-26T08:45:28;0.85;;;0.80;;
59607;SDS011;45426;44.726;10.390;2023-02-26T08:47:54;4.40;;;2.08;;
59607;SDS011;45426;44.726;10.390;2023-02-26T08:50:19;3.10;;;1.63;;
59607;SDS011;45426;44.726;10.390;2023-02-26T08:52:45;6.50;;;1.55;;
59607;SDS011;45426;44.726;10.390;2023-02-26T08:55:11;3.42;;;1.92;;
59607;SDS011;45426;44.726;10.390;2023-02-26T08:57:37;2.33;;;1.27;;
59607;SDS011;45426;44.726;10.390;2023-02-26T09:00:03;3.95;;;1.30;;
59607;SDS011;45426;44.726;10.390;2023-02-26T09:02:29;3.33;;;0.98;;
59607;SDS011;45426;44.726;10.390;2023-02-26T09:04:55;3.25;;;1.55;;
59607;SDS011;45426;44.726;10.390;2023-02-26T09:07:20;1.45;;;0.90;;
59607;SDS011;45426;44.726;10.390;2023-02-26T09:09:47;4.28;;;1.20;;
59607;SDS011;45426;44.726;10.390;2023-02-26T09:12:12;2.22;;;1.33;;
59607;SDS011;45426;44.726;10.390;2023-02-26T09:14:37;1.17;;;1.00;;
59607;SDS011;45426;44.726;10.390;2023-02-26T09:17:03;2.47;;;1.40;;
59607;SDS011;45426;44.726;10.390;2023-02-26T09:19:28;4.53;;;1.00;;
59607;SDS011;45426;44.726;10.390;2023-02-26T09:21:54;1.92;;;0.80;;
59607;SDS011;45426;44.726;10.390;2023-02-26T09:24:19;2.40;;;1.10;;
59607;SDS011;45426;44.726;10.390;2023-02-26T09:26:45;1.33;;;0.60;;
59607;SDS011;45426;44.726;10.390;2023-02-26T09:29:10;7.35;;;1.35;;
59607;SDS011;45426;44.726;10.390;2023-02-26T09:31:37;3.58;;;1.50;;
59607;SDS011;45426;44.726;10.390;2023-02-26T09:34:02;4.40;;;1.10;;
59607;SDS011;45426;44.726;10.390;2023-02-26T09:36:28;1.83;;;0.95;;
59607;SDS011;45426;44.726;10.390;2023-02-26T09:38:55;1.00;;;0.90;;
59607;SDS011;45426;44.726;10.390;2023-02-26T09:41:21;1.08;;;0.80;;
59607;SDS011;45426;44.726;10.390;2023-02-26T09:51:53;2.13;;;0.70;;
59607;SDS011;45426;44.726;10.390;2023-02-26T09:54:26;0.57;;;0.57;;
59607;SDS011;45426;44.726;10.390;2023-02-26T09:56:55;1.52;;;1.00;;
59607;SDS011;45426;44.726;10.390;2023-02-26T09:59:25;3.58;;;1.40;;
59607;SDS011;45426;44.726;10.390;2023-02-26T10:01:58;3.40;;;1.02;;
59607;SDS011;45426;44.726;10.390;2023-02-26T10:07:06;2.70;;;0.98;;
59607;SDS011;45426;44.726;10.390;2023-02-26T10:10:02;2.65;;;1.10;;
59607;SDS011;45426;44.726;10.390;2023-02-26T10:12:53;4.25;;;1.10;;
59607;SDS011;45426;44.726;10.390;2023-02-26T10:15:27;2.70;;;0.75;;
59607;SDS011;45426;44.726;10.390;2023-02-26T10:18:03;2.88;;;0.60;;
59607;SDS011;45426;44.726;10.390;2023-02-26T10:31:13;0.77;;;0.50;;
59607;SDS011;45426;44.726;10.390;2023-02-26T10:34:17;2.67;;;0.82;;
59607;SDS011;45426;44.726;10.390;2023-02-26T10:36:57;3.05;;;1.02;;
59607;SDS011;45426;44.726;10.390;2023-02-26T10:39:49;3.85;;;1.08;;
59607;SDS011;45426;44.726;10.390;2023-02-26T10:42:24;2.28;;;0.77;;
59607;SDS011;45426;44.726;10.390;2023-02-26T10:44:56;1.90;;;0.80;;
59607;SDS011;45426;44.726;10.390;2023-02-26T10:50:38;3.35;;;1.13;;
59607;SDS011;45426;44.726;10.390;2023-02-26T10:53:27;5.32;;;1.58;;
59607;SDS011;45426;44.726;10.390;2023-02-26T10:58:35;3.33;;;1.52;;
59607;SDS011;45426;44.726;10.390;2023-02-26T11:01:01;3.08;;;1.38;;
59607;SDS011;45426;44.726;10.390;2023-02-26T11:03:32;2.58;;;1.48;;
59607;SDS011;45426;44.726;10.390;2023-02-26T11:06:01;9.38;;;2.42;;
59607;SDS011;45426;44.726;10.390;2023-02-26T11:08:32;3.20;;;1.60;;
59607;SDS011;45426;44.726;10.390;2023-02-26T11:11:03;6.68;;;1.75;;
59607;SDS011;45426;44.726;10.390;2023-02-26T11:13:31;8.13;;;2.80;;
59607;SDS011;45426;44.726;10.390;2023-02-26T11:16:00;4.78;;;1.52;;
59607;SDS011;45426;44.726;10.390;2023-02-26T11:18:47;1.88;;;1.17;;
59607;SDS011;45426;44.726;10.390;2023-02-26T11:21:21;4.35;;;1.90;;
59607;SDS011;45426;44.726;10.390;2023-02-26T11:23:52;3.83;;;1.60;;
59607;SDS011;45426;44.726;10.390;2023-02-26T11:26:25;2.90;;;1.50;;
59607;SDS011;45426;44.726;10.390;2023-02-26T11:28:54;4.35;;;1.00;;
59607;SDS011;45426;44.726;10.390;2023-02-26T11:31:23;1.83;;;1.50;;
59607;SDS011;45426;44.726;10.390;2023-02-26T11:33:51;4.57;;;1.60;;
59607;SDS011;45426;44.726;10.390;2023-02-26T11:36:21;6.47;;;2.08;;
59607;SDS011;45426;44.726;10.390;2023-02-26T11:38:56;3.47;;;1.65;;
59607;SDS011;45426;44.726;10.390;2023-02-26T11:41:27;5.07;;;1.95;;
59607;SDS011;45426;44.726;10.390;2023-02-26T11:43:59;1.95;;;1.58;;
59607;SDS011;45426;44.726;10.390;2023-02-26T11:46:26;2.28;;;1.13;;
59607;SDS011;45426;44.726;10.390;2023-02-26T11:48:52;3.60;;;1.55;;
59607;SDS011;45426;44.726;10.390;2023-02-26T11:51:24;1.83;;;1.40;;
59607;SDS011;45426;44.726;10.390;2023-02-26T11:53:53;4.13;;;1.30;;
59607;SDS011;45426;44.726;10.390;2023-02-26T11:56:34;4.22;;;1.27;;
59607;SDS011;45426;44.726;10.390;2023-02-26T11:59:24;2.63;;;1.05;;
59607;SDS011;45426;44.726;10.390;2023-02-26T12:01:50;1.90;;;1.20;;
59607;SDS011;45426;44.726;10.390;2023-02-26T12:04:18;2.45;;;1.35;;
59607;SDS011;45426;44.726;10.390;2023-02-26T12:06:47;4.28;;;1.00;;
59607;SDS011;45426;44.726;10.390;2023-02-26T12:09:14;2.80;;;1.10;;
59607;SDS011;45426;44.726;10.390;2023-02-26T12:36:16;4.22;;;1.70;;
59607;SDS011;45426;44.726;10.390;2023-02-26T12:41:50;5.13;;;1.50;;
59607;SDS011;45426;44.726;10.390;2023-02-26T12:58:38;3.30;;;1.40;;
59607;SDS011;45426;44.726;10.390;2023-02-26T13:07:13;5.85;;;1.90;;
59607;SDS011;45426;44.726;10.390;2023-02-26T13:10:00;4.55;;;1.80;;
59607;SDS011;45426;44.726;10.390;2023-02-26T13:12:38;4.85;;;1.45;;
59607;SDS011;45426;44.726;10.390;2023-02-26T13:15:19;4.15;;;1.40;;
59607;SDS011;45426;44.726;10.390;2023-02-26T13:20:51;6.28;;;1.65;;
59607;SDS011;45426;44.726;10.390;2023-02-26T13:23:26;2.70;;;1.25;;
59607;SDS011;45426;44.726;10.390;2023-02-26T13:25:58;4.47;;;1.33;;
59607;SDS011;45426;44.726;10.390;2023-02-26T13:28:39;3.58;;;1.58;;
59607;SDS011;45426;44.726;10.390;2023-02-26T13:33:42;2.05;;;1.30;;
59607;SDS011;45426;44.726;10.390;2023-02-26T13:36:10;2.67;;;1.35;;
59607;SDS011;45426;44.726;10.390;2023-02-26T13:41:48;2.05;;;1.08;;
59607;SDS011;45426;44.726;10.390;2023-02-26T13:49:49;4.07;;;1.33;;
59607;SDS011;45426;44.726;10.390;2023-02-26T13:52:19;4.53;;;1.50;;
59607;SDS011;45426;44.726;10.390;2023-02-26T13:54:48;8.13;;;1.50;;
59607;SDS011;45426;44.726;10.390;2023-02-26T13:57:22;7.95;;;1.92;;
59607;SDS011;45426;44.726;10.390;2023-02-26T14:00:14;4.03;;;1.67;;
59607;SDS011;45426;44.726;10.390;2023-02-26T14:02:51;3.58;;;1.65;;
59607;SDS011;45426;44.726;10.390;2023-02-26T14:06:05;5.90;;;1.63;;
59607;SDS011;45426;44.726;10.390;2023-02-26T14:10:44;4.32;;;1.92;;
59607;SDS011;45426;44.726;10.390;2023-02-26T14:13:33;5.32;;;1.45;;
59607;SDS011;45426;44.726;10.390;2023-02-26T14:15:59;4.05;;;1.45;;
59607;SDS011;45426;44.726;10.390;2023-02-26T14:21:34;4.38;;;1.60;;
59607;SDS011;45426;44.726;10.390;2023-02-26T14:24:04;4.90;;;1.50;;
59607;SDS011;45426;44.726;10.390;2023-02-26T14:26:38;6.72;;;2.00;;
59607;SDS011;45426;44.726;10.390;2023-02-26T14:36:59;6.13;;;1.45;;
59607;SDS011;45426;44.726;10.390;2023-02-26T14:39:37;3.60;;;1.85;;
59607;SDS011;45426;44.726;10.390;2023-02-26T14:42:11;5.15;;;1.80;;
59607;SDS011;45426;44.726;10.390;2023-02-26T14:44:42;5.00;;;2.03;;
59607;SDS011;45426;44.726;10.390;2023-02-26T14:47:12;3.42;;;1.23;;
59607;SDS011;45426;44.726;10.390;2023-02-26T14:49:39;2.83;;;1.30;;
59607;SDS011;45426;44.726;10.390;2023-02-26T15:00:15;5.95;;;1.70;;
59607;SDS011;45426;44.726;10.390;2023-02-26T15:08:03;3.78;;;1.40;;
59607;SDS011;45426;44.726;10.390;2023-02-26T15:23:42;1.85;;;1.00;;
59607;SDS011;45426;44.726;10.390;2023-02-26T15:26:21;4.13;;;1.60;;
59607;SDS011;45426;44.726;10.390;2023-02-26T15:28:50;4.15;;;1.52;;
59607;SDS011;45426;44.726;10.390;2023-02-26T15:31:20;2.50;;;1.30;;
59607;SDS011;45426;44.726;10.390;2023-02-26T15:33:55;3.80;;;1.70;;
59607;SDS011;45426;44.726;10.390;2023-02-26T15:36:21;1.83;;;1.40;;
59607;SDS011;45426;44.726;10.390;2023-02-26T15:38:53;1.80;;;1.27;;
59607;SDS011;45426;44.726;10.390;2023-02-26T15:41:21;2.10;;;1.13;;
59607;SDS011;45426;44.726;10.390;2023-02-26T15:43:50;4.60;;;1.40;;
59607;SDS011;45426;44.726;10.390;2023-02-26T15:46:26;5.25;;;1.40;;
59607;SDS011;45426;44.726;10.390;2023-02-26T15:48:58;4.78;;;1.95;;
59607;SDS011;45426;44.726;10.390;2023-02-26T15:51:34;4.05;;;1.42;;
59607;SDS011;45426;44.726;10.390;2023-02-26T15:54:00;2.28;;;1.30;;
59607;SDS011;45426;44.726;10.390;2023-02-26T15:56:31;4.28;;;1.35;;
59607;SDS011;45426;44.726;10.390;2023-02-26T15:59:01;3.05;;;1.30;;
59607;SDS011;45426;44.726;10.390;2023-02-26T16:01:31;3.17;;;1.40;;
59607;SDS011;45426;44.726;10.390;2023-02-26T16:03:59;1.27;;;1.17;;
59607;SDS011;45426;44.726;10.390;2023-02-26T16:06:30;1.98;;;1.35;;
59607;SDS011;45426;44.726;10.390;2023-02-26T16:09:03;1.58;;;1.10;;
59607;SDS011;45426;44.726;10.390;2023-02-26T16:11:36;2.10;;;1.20;;
59607;SDS011;45426;44.726;10.390;2023-02-26T16:14:04;3.60;;;1.50;;
59607;SDS011;45426;44.726;10.390;2023-02-26T16:16:43;1.80;;;1.42;;
59607;SDS011;45426;44.726;10.390;2023-02-26T16:19:13;2.85;;;1.63;;
59607;SDS011;45426;44.726;10.390;2023-02-26T16:21:40;2.80;;;1.33;;
59607;SDS011;45426;44.726;10.390;2023-02-26T16:24:07;2.80;;;0.98;;
59607;SDS011;45426;44.726;10.390;2023-02-26T16:26:46;3.10;;;1.40;;
59607;SDS011;45426;44.726;10.390;2023-02-26T16:29:23;4.25;;;1.50;;
59607;SDS011;45426;44.726;10.390;2023-02-26T16:36:54;4.47;;;1.77;;
59607;SDS011;45426;44.726;10.390;2023-02-26T16:39:24;5.82;;;1.90;;
59607;SDS011;45426;44.726;10.390;2023-02-26T16:44:49;4.05;;;1.88;;
59607;SDS011;45426;44.726;10.390;2023-02-26T16:47:21;3.22;;;1.80;;
59607;SDS011;45426;44.726;10.390;2023-02-26T16:49:48;3.67;;;1.90;;
59607;SDS011;45426;44.726;10.390;2023-02-26T16:52:21;3.17;;;1.65;;
59607;SDS011;45426;44.726;10.390;2023-02-26T16:54:55;7.88;;;2.03;;
59607;SDS011;45426;44.726;10.390;2023-02-26T16:57:30;9.43;;;2.50;;
59607;SDS011;45426;44.726;10.390;2023-02-26T17:00:04;6.88;;;2.20;;
59607;SDS011;45426;44.726;10.390;2023-02-26T17:02:36;8.13;;;2.50;;
59607;SDS011;45426;44.726;10.390;2023-02-26T17:05:13;5.63;;;2.70;;
59607;SDS011;45426;44.726;10.390;2023-02-26T17:07:46;6.63;;;2.17;;
59607;SDS011;45426;44.726;10.390;2023-02-26T17:10:18;7.32;;;2.50;;
59607;SDS011;45426;44.726;10.390;2023-02-26T17:12:48;5.28;;;2.50;;
59607;SDS011;45426;44.726;10.390;2023-02-26T17:15:18;11.60;;;3.30;;
59607;SDS011;45426;44.726;10.390;2023-02-26T17:17:54;5.13;;;2.00;;
59607;SDS011;45426;44.726;10.390;2023-02-26T17:20:22;2.25;;;1.50;;
59607;SDS011;45426;44.726;10.390;2023-02-26T17:22:49;6.90;;;2.92;;
59607;SDS011;45426;44.726;10.390;2023-02-26T17:25:16;5.90;;;2.63;;
59607;SDS011;45426;44.726;10.390;2023-02-26T17:27:43;7.07;;;2.75;;
59607;SDS011;45426;44.726;10.390;2023-02-26T17:30:17;5.75;;;2.20;;
59607;SDS011;45426;44.726;10.390;2023-02-26T17:32:44;7.57;;;3.05;;
59607;SDS011;45426;44.726;10.390;2023-02-26T17:35:13;12.07;;;3.25;;
59607;SDS011;45426;44.726;10.390;2023-02-26T17:37:40;5.80;;;2.50;;
59607;SDS011;45426;44.726;10.390;2023-02-26T17:40:17;6.47;;;2.72;;
59607;SDS011;45426;44.726;10.390;2023-02-26T17:42:48;7.75;;;3.00;;